EDT,Max TemperatureF,Mean TemperatureF,Min TemperatureF,Max Dew PointF,MeanDew PointF,Min DewpointF,Max Humidity, Mean Humidity, Min Humidity, Max Sea Level PressureIn, Mean Sea Level PressureIn, Min Sea Level PressureIn, Max VisibilityMiles, Mean VisibilityMiles, Min VisibilityMiles, Max Wind SpeedMPH, Mean Wind SpeedMPH, Max Gust SpeedMPH,PrecipitationIn, CloudCover, Events, WindDirDegrees
2012-9-1,78,74,69,73,72,70,100,92,78,30.11,30.07,30.00,10,8,4,7,1,,0.10,5,Rain,107
2012-9-2,78,74,69,73,71,68,100,88,78,30.01,29.95,29.90,10,7,2,16,9,23,0.13,6,Rain,96
2012-9-3,86,77,68,72,69,66,94,80,58,29.94,29.92,29.88,10,10,7,12,7,,0.00,1,,85
2012-9-4,82,74,66,70,69,66,100,85,62,29.93,29.90,29.87,10,8,0,8,2,,0.00,2,Fog,357
2012-9-5,78,71,64,72,67,63,100,87,73,29.93,29.87,29.83,10,8,1,23,3,29,0.01,1,Rain,175
2012-9-6,86,73,60,68,62,52,100,72,39,29.95,29.92,29.87,10,9,4,13,3,17,0.00,1,,276
2012-9-7,78,66,55,68,61,55,100,85,54,29.95,29.86,29.75,10,9,5,13,2,24,0.16,2,Rain,210
2012-9-8,69,61,53,57,52,46,100,77,46,29.90,29.84,29.75,10,10,7,17,8,25,0.08,5,Rain,315
2012-9-9,69,60,51,54,52,46,100,75,49,30.13,30.00,29.88,10,10,0,10,3,16,0.04,4,Fog-Rain,346
2012-9-10,71,58,46,50,47,41,100,68,35,30.26,30.19,30.14,10,10,7,7,1,,0.00,0,,108
2012-9-11,78,64,50,54,50,46,88,60,36,30.24,30.19,30.15,10,10,10,9,2,16,0.00,0,,203
2012-9-12,82,68,55,57,54,50,82,59,37,30.25,30.21,30.16,10,10,7,10,2,18,0.00,1,,202
2012-9-13,80,70,60,61,58,55,88,64,42,30.27,30.24,30.19,10,10,10,14,3,21,0.00,7,Rain,238
2012-9-14,71,60,50,55,49,41,100,73,40,30.35,30.30,30.26,10,10,5,13,6,18,0.20,4,Rain,358
2012-9-15,73,58,44,52,47,43,100,72,38,30.35,30.28,30.18,10,10,10,7,1,,0.00,0,,174
2012-9-16,75,60,46,52,47,43,100,65,33,30.18,30.11,30.03,10,10,10,8,2,,0.00,0,,211
2012-9-17,73,62,50,63,54,46,94,77,53,30.04,29.90,29.75,10,10,5,8,2,,0.00,2,,210
2012-9-18,64,55,46,63,48,34,100,77,44,30.03,29.84,29.70,10,9,2,18,7,26,0.31,6,Rain,320
2012-9-19,68,52,37,41,38,34,100,61,30,30.14,30.06,29.98,10,10,10,10,3,20,0.00,1,,204
2012-9-20,71,60,48,52,44,37,87,59,35,29.98,29.92,29.89,10,10,5,13,7,18,0.03,2,Rain,231
2012-9-21,68,55,42,52,43,36,94,73,32,29.97,29.91,29.81,10,10,10,12,2,16,0.02,3,Rain,352
2012-9-22,53,48,42,50,45,37,100,88,58,30.15,29.94,29.79,10,6,0,24,6,33,0.05,6,Fog-Rain,263
2012-9-23,59,48,37,41,36,32,100,71,39,30.26,30.21,30.14,10,10,7,16,5,23,0.00,1,,282
2012-9-24,66,50,33,37,34,30,100,60,28,30.26,30.15,29.99,10,10,10,15,3,22,0.00,0,,220
2012-9-25,68,60,51,61,49,36,94,71,47,30.00,29.94,29.90,10,10,4,8,4,,0.00,7,,201
2012-9-26,71,63,55,61,58,46,100,82,68,30.14,30.00,29.90,10,7,1,9,4,,0.00,7,,277
2012-9-27,69,60,51,55,51,45,88,73,56,30.18,30.15,30.11,10,10,10,9,4,,0.00,6,,76
2012-9-28,68,57,46,52,50,46,100,80,49,30.16,30.13,30.10,10,9,5,12,2,,0.00,5,,93
2012-9-29,71,56,41,48,43,39,100,71,33,30.13,30.06,29.96,10,7,0,14,2,21,0.00,1,Fog,311
2012-9-30,66,54,41,46,43,39,100,73,40,29.97,29.94,29.92,10,8,0,13,3,20,0.00,0,Fog,50